createdAt,value
2023-01-30T00:03:43.027Z,-4.17
2023-01-30T00:08:48.661Z,-4.22
2023-01-30T00:13:53.103Z,-4.24
2023-01-30T00:18:56.501Z,-4.22
2023-01-30T00:24:01.169Z,-4.21
2023-01-30T00:29:04.690Z,-4.20
2023-01-30T00:34:08.098Z,-4.22
2023-01-30T00:39:12.776Z,-4.20
2023-01-30T00:44:33.790Z,-4.19
2023-01-30T00:49:38.325Z,-4.31
2023-01-30T00:54:43.121Z,-4.26
2023-01-30T00:59:46.379Z,-4.28
2023-01-30T01:04:49.705Z,-4.26
2023-01-30T01:09:54.610Z,-4.36
2023-01-30T01:14:58.708Z,-4.21
2023-01-30T01:20:02.147Z,-4.20
2023-01-30T01:25:09.130Z,-4.20
2023-01-30T01:30:13.865Z,-4.19
2023-01-30T01:35:17.476Z,-4.13
2023-01-30T01:40:40.421Z,-4.12
2023-01-30T01:45:45.113Z,-4.08
2023-01-30T01:50:52.841Z,-4.09
2023-01-30T01:55:59.731Z,-4.08
2023-01-30T02:01:03.280Z,-4.10
2023-01-30T02:06:08.556Z,-4.05
2023-01-30T02:11:19.257Z,-4.05
2023-01-30T02:16:22.766Z,-4.04
2023-01-30T02:22:10.866Z,-4.03
2023-01-30T02:27:31.736Z,-4.03
2023-01-30T02:32:44.633Z,-4.02
2023-01-30T02:37:50.970Z,-4.02
2023-01-30T02:43:06.092Z,-4.00
2023-01-30T02:48:15.371Z,-4.00
2023-01-30T02:53:19.092Z,-3.99
2023-01-30T02:58:25.595Z,-3.99
2023-01-30T03:03:45.567Z,-3.99
2023-01-30T03:09:03.857Z,-3.99
2023-01-30T03:14:15.571Z,-3.99
2023-01-30T03:19:21.005Z,-3.99
2023-01-30T03:24:25.165Z,-3.99
2023-01-30T03:29:28.471Z,-4.00
2023-01-30T03:34:33.449Z,-4.06
2023-01-30T03:39:37.111Z,-4.04
2023-01-30T03:44:40.455Z,-4.05
2023-01-30T03:49:45.589Z,-4.05
2023-01-30T03:54:49.120Z,-4.04
2023-01-30T03:59:52.387Z,-4.06
2023-01-30T04:04:57.125Z,-4.06
2023-01-30T04:10:00.659Z,-4.05
2023-01-30T04:15:04.141Z,-4.04
2023-01-30T04:20:10.828Z,-4.05
2023-01-30T04:25:14.245Z,-4.08
2023-01-30T04:30:18.165Z,-4.06
2023-01-30T04:35:22.913Z,-4.01
2023-01-30T04:40:26.273Z,-4.02
2023-01-30T04:45:30.435Z,-4.02
2023-01-30T04:50:35.332Z,-4.03
2023-01-30T04:55:39.014Z,-4.02
2023-01-30T05:00:42.459Z,-4.03
2023-01-30T05:05:49.798Z,-4.02
2023-01-30T05:10:53.526Z,-4.01
2023-01-30T05:15:56.988Z,-4.01
2023-01-30T05:21:07.237Z,-3.99
2023-01-30T05:26:11.103Z,-3.97
2023-01-30T05:31:15.689Z,-3.93
2023-01-30T05:36:22.768Z,-3.93
2023-01-30T05:41:26.258Z,-3.91
2023-01-30T05:46:29.857Z,-3.89
2023-01-30T05:51:35.286Z,-3.88
2023-01-30T05:56:39.005Z,-3.86
2023-01-30T06:01:42.401Z,-3.84
2023-01-30T06:06:47.324Z,-3.76
2023-01-30T06:11:53.224Z,-3.69
2023-01-30T06:16:56.625Z,-3.65
2023-01-30T06:22:03.143Z,-3.57
2023-01-30T06:27:06.575Z,-3.45
2023-01-30T06:32:10.840Z,-3.43
2023-01-30T06:37:15.590Z,-3.39
2023-01-30T06:42:18.968Z,-3.37
2023-01-30T06:47:23.987Z,-3.39
2023-01-30T06:52:28.727Z,-3.38
2023-01-30T06:57:32.016Z,-3.35
2023-01-30T07:02:35.850Z,-3.32
2023-01-30T07:07:41.368Z,-3.32
2023-01-30T07:12:46.131Z,-3.32
2023-01-30T07:17:49.487Z,-3.30
2023-01-30T07:22:55.675Z,-3.35
2023-01-30T07:28:01.163Z,-3.38
2023-01-30T07:33:06.328Z,-3.38
2023-01-30T07:38:11.076Z,-3.30
2023-01-30T07:43:15.202Z,-3.23
2023-01-30T07:48:20.705Z,-3.27
2023-01-30T07:53:25.522Z,-3.20
2023-01-30T07:58:30.016Z,-3.23
2023-01-30T08:03:34.147Z,-3.23
2023-01-30T08:08:38.978Z,-3.13
2023-01-30T08:13:42.558Z,-2.99
2023-01-30T08:18:45.903Z,-2.86
2023-01-30T08:23:51.088Z,-2.72
2023-01-30T08:28:56.065Z,-2.52
2023-01-30T08:33:59.383Z,-2.49
2023-01-30T08:39:04.192Z,-2.47
2023-01-30T08:44:07.836Z,-2.38
2023-01-30T08:49:12.341Z,-2.31
2023-01-30T08:54:17.066Z,-2.18
2023-01-30T08:59:20.492Z,-2.10
2023-01-30T09:04:25.159Z,-2.07
2023-01-30T09:09:31.835Z,-2.05
2023-01-30T09:14:35.278Z,-1.93
2023-01-30T09:19:38.585Z,-1.79
2023-01-30T09:24:43.549Z,-1.71
2023-01-30T09:29:46.831Z,-1.68
2023-01-30T09:34:50.135Z,-1.75
2023-01-30T09:39:54.910Z,-1.80
2023-01-30T09:45:24.386Z,-1.79
2023-01-30T09:50:44.873Z,-1.84
2023-01-30T09:55:50.636Z,-1.83
2023-01-30T10:01:00.335Z,-1.86
2023-01-30T10:06:08.149Z,-1.91
2023-01-30T10:11:26.018Z,-1.89
2023-01-30T10:16:37.010Z,-1.90
2023-01-30T10:21:51.759Z,-1.81
2023-01-30T10:26:58.477Z,-1.71
2023-01-30T10:32:08.435Z,-1.72
2023-01-30T10:37:16.632Z,-1.75
2023-01-30T10:42:28.233Z,-1.83
2023-01-30T10:47:47.596Z,-1.86
2023-01-30T10:53:01.695Z,-1.84
2023-01-30T10:58:16.760Z,-1.83
2023-01-30T11:03:25.807Z,-1.83
2023-01-30T11:08:31.154Z,-1.96
2023-01-30T11:13:37.708Z,-1.70
2023-01-30T11:24:18.374Z,-1.61
2023-01-30T11:29:29.702Z,-1.65
2023-01-30T11:34:33.290Z,-1.73
2023-01-30T11:39:37.020Z,-1.64
2023-01-30T11:44:43.370Z,-1.59
2023-01-30T11:50:03.678Z,-1.50
2023-01-30T11:55:17.794Z,-1.47
2023-01-30T12:00:25.189Z,-1.59
2023-01-30T12:05:35.776Z,-1.46
2023-01-30T12:10:42.655Z,-1.48
2023-01-30T12:15:53.033Z,-1.53
2023-01-30T12:21:01.320Z,-1.50
2023-01-30T12:26:12.062Z,-1.50
2023-01-30T12:31:23.690Z,-1.53
2023-01-30T12:36:39.370Z,-1.55
2023-01-30T12:41:58.099Z,-1.54
2023-01-30T12:47:22.277Z,-1.55
2023-01-30T12:52:46.587Z,-1.56
2023-01-30T12:57:55.464Z,-1.56
2023-01-30T13:03:24.005Z,-1.58
2023-01-30T13:08:58.067Z,-1.59
2023-01-30T13:14:05.078Z,-1.59
2023-01-30T13:19:21.126Z,-1.61
2023-01-30T13:24:41.129Z,-1.61
2023-01-30T13:29:47.122Z,-1.61
2023-01-30T13:34:56.324Z,-1.61
2023-01-30T13:40:04.013Z,-1.62
2023-01-30T13:45:10.316Z,-1.62
2023-01-30T13:50:43.057Z,-1.61
2023-01-30T13:55:53.673Z,-1.60
2023-01-30T14:00:58.174Z,-1.61
2023-01-30T14:06:22.632Z,-1.61
2023-01-30T14:11:48.773Z,-1.60
2023-01-30T14:16:55.067Z,-1.62
2023-01-30T14:22:03.176Z,-1.60
2023-01-30T14:27:24.872Z,-1.64
2023-01-30T14:32:54.562Z,-1.57
2023-01-30T14:38:14.645Z,-1.53
2023-01-30T14:43:53.318Z,-1.57
2023-01-30T14:49:04.543Z,-1.53
2023-01-30T14:54:27.468Z,-1.51
2023-01-30T15:00:11.495Z,-1.51
2023-01-30T15:05:19.621Z,-1.54
2023-01-30T15:10:40.230Z,-1.49
2023-01-30T15:15:53.913Z,-1.50
2023-01-30T15:21:18.301Z,-1.51
2023-01-30T15:26:32.197Z,-1.49
2023-01-30T15:31:35.692Z,-1.49
2023-01-30T15:36:39.020Z,-1.51
2023-01-30T15:41:44.221Z,-1.50
2023-01-30T15:46:57.048Z,-1.50
2023-01-30T15:52:04.063Z,-1.51
2023-01-30T15:57:18.122Z,-1.50
2023-01-30T16:02:30.349Z,-1.50
2023-01-30T16:07:35.035Z,-1.48
2023-01-30T16:12:41.135Z,-1.50
2023-01-30T16:17:47.171Z,-1.50
2023-01-30T16:22:51.021Z,-1.50
2023-01-30T16:27:55.953Z,-1.52
2023-01-30T16:32:59.524Z,-1.54
2023-01-30T16:38:05.600Z,-1.59
2023-01-30T16:43:21.888Z,-1.61
2023-01-30T16:48:33.231Z,-1.59
2023-01-30T16:53:37.337Z,-1.57
2023-01-30T16:58:45.890Z,-1.57
2023-01-30T17:04:03.006Z,-1.58
2023-01-30T17:09:09.389Z,-1.57
2023-01-30T17:14:23.107Z,-1.58
2023-01-30T17:19:26.444Z,-1.59
2023-01-30T17:24:30.166Z,-1.64
2023-01-30T17:29:43.657Z,-1.66
2023-01-30T17:34:47.658Z,-1.65
2023-01-30T17:39:51.124Z,-1.65
2023-01-30T17:44:56.035Z,-1.66
2023-01-30T17:49:59.480Z,-1.63
2023-01-30T17:55:03.094Z,-1.68
2023-01-30T18:00:09.565Z,-1.69
2023-01-30T18:05:13.559Z,-1.70
2023-01-30T18:10:20.308Z,-1.65
2023-01-30T18:15:25.812Z,-1.70
2023-01-30T18:20:29.063Z,-1.69
2023-01-30T18:25:32.376Z,-1.71
2023-01-30T18:30:37.533Z,-1.74
2023-01-30T18:35:40.957Z,-1.74
2023-01-30T18:40:44.465Z,-1.76
2023-01-30T18:45:49.506Z,-1.75
2023-01-30T18:50:52.856Z,-1.76
2023-01-30T18:55:56.323Z,-1.77
2023-01-30T19:01:01.767Z,-1.79
2023-01-30T19:06:05.446Z,-1.81
2023-01-30T19:11:23.826Z,-1.83
2023-01-30T19:16:30.758Z,-1.85
2023-01-30T19:21:34.966Z,-1.86
2023-01-30T19:26:38.259Z,-1.87
2023-01-30T19:31:43.068Z,-1.90
2023-01-30T19:36:46.438Z,-1.93
2023-01-30T19:41:49.881Z,-2.00
2023-01-30T19:46:55.823Z,-2.04
2023-01-30T19:52:02.178Z,-2.07
2023-01-30T19:57:05.851Z,-2.11
2023-01-30T20:02:11.806Z,-2.17
2023-01-30T20:07:15.273Z,-2.18
2023-01-30T20:12:18.712Z,-2.27
2023-01-30T20:17:24.006Z,-2.41
2023-01-30T20:22:27.365Z,-2.53
2023-01-30T20:27:30.903Z,-2.64
2023-01-30T20:32:36.748Z,-2.71
2023-01-30T20:37:40.060Z,-2.77
2023-01-30T20:42:43.603Z,-2.81
2023-01-30T20:47:48.383Z,-2.83
2023-01-30T20:52:52.688Z,-2.88
2023-01-30T20:57:56.097Z,-2.93
2023-01-30T21:03:00.904Z,-2.98
2023-01-30T21:08:04.869Z,-3.02
2023-01-30T21:13:08.439Z,-3.04
2023-01-30T21:18:13.535Z,-3.09
2023-01-30T21:23:16.804Z,-3.14
2023-01-30T21:28:20.259Z,-3.13
2023-01-30T21:33:25.053Z,-3.13
2023-01-30T21:38:45.937Z,-3.12
2023-01-30T21:43:49.627Z,-3.11
2023-01-30T21:48:54.757Z,-3.09
2023-01-30T21:53:58.456Z,-3.10
2023-01-30T21:59:03.187Z,-3.08
2023-01-30T22:04:10.147Z,-3.10
2023-01-30T22:09:15.401Z,-3.11
2023-01-30T22:14:18.772Z,-3.13
2023-01-30T22:19:23.670Z,-3.15
2023-01-30T22:24:26.963Z,-3.20
2023-01-30T22:29:30.399Z,-3.22
2023-01-30T22:34:36.117Z,-3.26
2023-01-30T22:39:40.461Z,-3.26
2023-01-30T22:44:44.089Z,-3.27
2023-01-30T22:49:49.225Z,-3.28
2023-01-30T22:54:52.686Z,-3.27
2023-01-30T22:59:55.920Z,-3.27
2023-01-30T23:05:00.708Z,-3.25
2023-01-30T23:10:04.190Z,-3.24
2023-01-30T23:15:09.026Z,-3.24
2023-01-30T23:20:14.800Z,-3.26
2023-01-30T23:25:18.447Z,-3.25
2023-01-30T23:30:22.093Z,-3.27
2023-01-30T23:35:27.152Z,-3.25
2023-01-30T23:40:30.544Z,-3.26
2023-01-30T23:45:35.239Z,-3.25
2023-01-30T23:50:42.335Z,-3.27
2023-01-30T23:55:52.467Z,-3.27
